createdAt,value
2024-02-26T00:01:51.569Z,69.06
2024-02-26T00:04:18.232Z,63.66
2024-02-26T00:06:45.223Z,68.20
2024-02-26T00:09:12.008Z,59.34
2024-02-26T00:11:39.256Z,71.69
2024-02-26T00:14:06.175Z,61.18
2024-02-26T00:16:32.852Z,69.76
2024-02-26T00:19:01.136Z,61.94
2024-02-26T00:21:29.293Z,64.96
2024-02-26T00:23:55.975Z,63.70
2024-02-26T00:26:22.654Z,57.15
2024-02-26T00:28:49.256Z,63.64
2024-02-26T00:31:15.984Z,51.66
2024-02-26T00:33:42.802Z,50.82
2024-02-26T00:36:10.896Z,70.21
2024-02-26T00:38:38.224Z,67.26
2024-02-26T00:41:04.871Z,65.53
2024-02-26T00:43:31.510Z,69.14
2024-02-26T00:45:58.216Z,67.82
2024-02-26T00:48:26.921Z,71.90
2024-02-26T00:50:53.664Z,48.63
2024-02-26T00:53:21.680Z,44.43
2024-02-26T00:55:48.309Z,65.93
2024-02-26T00:58:15.259Z,67.29
2024-02-26T01:00:42.003Z,47.52
2024-02-26T01:03:08.810Z,45.50
2024-02-26T01:05:35.569Z,63.82
2024-02-26T01:08:02.395Z,64.56
2024-02-26T01:10:30.462Z,63.86
2024-02-26T01:12:57.178Z,59.81
2024-02-26T01:15:25.035Z,52.97
2024-02-26T01:17:52.427Z,56.68
2024-02-26T01:20:19.226Z,48.52
2024-02-26T01:22:45.950Z,47.29
2024-02-26T01:25:13.379Z,62.53
2024-02-26T01:27:43.639Z,67.78
2024-02-26T01:30:11.697Z,54.08
2024-02-26T01:32:38.446Z,55.82
2024-02-26T01:35:06.336Z,66.43
2024-02-26T01:37:33.075Z,48.68
2024-02-26T01:39:59.736Z,49.08
2024-02-26T01:42:26.549Z,50.26
2024-02-26T01:44:54.582Z,54.42
2024-02-26T01:47:21.295Z,57.31
2024-02-26T01:49:48.768Z,48.86
2024-02-26T01:52:16.823Z,57.50
2024-02-26T01:54:46.269Z,60.28
2024-02-26T01:57:13.690Z,66.39
2024-02-26T01:59:41.308Z,52.11
2024-02-26T02:02:11.231Z,50.30
2024-02-26T02:04:38.368Z,49.04
2024-02-26T02:07:06.077Z,49.64
2024-02-26T02:09:33.493Z,57.09
2024-02-26T02:12:01.422Z,59.65
2024-02-26T02:14:28.153Z,44.03
2024-02-26T02:16:54.748Z,44.27
2024-02-26T02:19:22.722Z,53.88
2024-02-26T02:21:50.731Z,65.45
2024-02-26T02:24:17.452Z,50.18
2024-02-26T02:26:44.194Z,58.61
2024-02-26T02:29:11.849Z,67.12
2024-02-26T02:31:38.813Z,43.91
2024-02-26T02:34:05.772Z,58.68
2024-02-26T02:36:33.666Z,55.89
2024-02-26T02:39:01.785Z,56.07
2024-02-26T02:41:30.918Z,47.66
2024-02-26T02:43:57.635Z,53.60
2024-02-26T02:46:24.269Z,51.71
2024-02-26T02:48:51.293Z,56.85
2024-02-26T02:51:18.175Z,55.01
2024-02-26T02:53:44.886Z,48.34
2024-02-26T02:56:13.492Z,51.11
2024-02-26T02:58:40.217Z,61.53
2024-02-26T03:01:06.947Z,59.28
2024-02-26T03:03:33.600Z,66.96
2024-02-26T03:06:00.417Z,57.88
2024-02-26T03:08:27.285Z,49.31
2024-02-26T03:10:54.224Z,62.98
2024-02-26T03:13:22.421Z,48.34
2024-02-26T03:15:49.108Z,48.84
2024-02-26T03:18:15.922Z,57.02
2024-02-26T03:20:42.618Z,61.96
2024-02-26T03:23:12.973Z,54.25
2024-02-26T03:25:39.847Z,60.16
2024-02-26T03:28:06.851Z,60.52
2024-02-26T03:30:35.630Z,59.46
2024-02-26T03:33:02.452Z,54.66
2024-02-26T03:35:29.181Z,65.04
2024-02-26T03:37:55.798Z,53.86
2024-02-26T03:40:22.511Z,46.42
2024-02-26T03:42:49.204Z,47.29
2024-02-26T03:45:15.895Z,43.71
2024-02-26T03:47:43.993Z,50.82
2024-02-26T03:50:10.817Z,51.77
2024-02-26T03:52:37.755Z,43.51
2024-02-26T03:55:05.025Z,49.98
2024-02-26T03:57:31.676Z,50.13
2024-02-26T03:59:58.387Z,51.64
2024-02-26T04:02:26.565Z,51.84
2024-02-26T04:04:54.562Z,58.03
2024-02-26T04:07:21.360Z,56.55
2024-02-26T04:09:48.038Z,63.94
2024-02-26T04:12:15.629Z,53.89
2024-02-26T04:14:42.519Z,62.89
2024-02-26T04:17:09.345Z,67.21
2024-02-26T04:19:36.152Z,55.77
2024-02-26T04:22:04.674Z,64.62
2024-02-26T04:24:31.346Z,66.61
2024-02-26T04:26:58.121Z,58.62
2024-02-26T04:29:24.749Z,61.93
2024-02-26T04:31:51.395Z,68.32
2024-02-26T04:34:18.236Z,69.71
2024-02-26T04:36:44.956Z,62.23
2024-02-26T04:39:12.928Z,67.42
2024-02-26T04:41:39.589Z,60.31
2024-02-26T04:44:06.408Z,59.67
2024-02-26T04:46:33.050Z,69.46
2024-02-26T04:48:59.871Z,57.30
2024-02-26T04:51:27.128Z,69.13
2024-02-26T04:53:54.862Z,69.95
2024-02-26T04:56:23.064Z,65.59
2024-02-26T04:58:49.688Z,69.98
2024-02-26T05:01:18.090Z,58.49
2024-02-26T05:03:45.179Z,70.35
2024-02-26T05:06:12.099Z,69.36
2024-02-26T05:08:39.764Z,70.92
2024-02-26T05:11:07.130Z,58.39
2024-02-26T05:13:35.162Z,70.32
2024-02-26T05:16:01.830Z,70.36
2024-02-26T05:18:29.023Z,59.47
2024-02-26T05:20:55.746Z,60.74
2024-02-26T05:23:24.140Z,70.63
2024-02-26T05:25:50.956Z,65.61
2024-02-26T05:28:17.674Z,71.42
2024-02-26T05:30:45.703Z,72.32
2024-02-26T05:33:14.391Z,71.12
2024-02-26T05:35:42.840Z,61.03
2024-02-26T05:38:09.433Z,70.10
2024-02-26T05:40:36.112Z,66.81
2024-02-26T05:43:02.721Z,57.24
2024-02-26T05:45:29.451Z,59.15
2024-02-26T05:47:57.695Z,59.73
2024-02-26T05:50:24.334Z,57.99
2024-02-26T05:52:50.910Z,58.41
2024-02-26T05:55:17.582Z,69.54
2024-02-26T05:57:44.228Z,58.24
2024-02-26T06:00:15.549Z,68.84
2024-02-26T06:02:42.797Z,64.02
2024-02-26T06:05:11.034Z,53.63
2024-02-26T06:07:37.654Z,68.24
2024-02-26T06:10:05.897Z,67.39
2024-02-26T06:12:32.702Z,70.00
2024-02-26T06:15:02.115Z,65.71
2024-02-26T06:17:29.356Z,67.96
2024-02-26T06:19:56.184Z,59.28
2024-02-26T06:22:24.175Z,63.65
2024-02-26T06:24:50.789Z,70.31
2024-02-26T06:27:17.473Z,70.89
2024-02-26T06:29:44.311Z,69.12
2024-02-26T06:32:11.097Z,58.12
2024-02-26T06:34:39.524Z,68.73
2024-02-26T06:37:06.633Z,69.92
2024-02-26T06:39:35.042Z,60.92
2024-02-26T06:42:02.619Z,68.71
2024-02-26T06:44:35.462Z,66.26
2024-02-26T06:47:02.778Z,63.98
2024-02-26T06:49:30.206Z,65.37
2024-02-26T06:51:57.146Z,70.89
2024-02-26T06:54:23.867Z,65.82
2024-02-26T06:56:51.897Z,58.00
2024-02-26T06:59:18.619Z,64.08
2024-02-26T07:01:45.319Z,68.78
2024-02-26T07:04:12.273Z,58.80
2024-02-26T07:06:39.128Z,62.76
2024-02-26T07:09:05.985Z,63.79
2024-02-26T07:11:32.680Z,64.18
2024-02-26T07:14:02.033Z,63.77
2024-02-26T07:16:28.737Z,65.75
2024-02-26T07:18:55.444Z,65.43
2024-02-26T07:21:22.453Z,69.18
2024-02-26T07:23:49.203Z,64.03
2024-02-26T07:26:16.060Z,69.14
2024-02-26T07:28:42.676Z,67.76
2024-02-26T07:31:10.660Z,66.93
2024-02-26T07:33:37.687Z,62.16
2024-02-26T07:36:04.940Z,68.65
2024-02-26T07:38:41.877Z,62.90
2024-02-26T07:41:10.379Z,66.08
2024-02-26T07:43:37.082Z,67.83
2024-02-26T07:46:04.007Z,63.24
2024-02-26T07:48:32.185Z,59.96
2024-02-26T07:51:01.232Z,66.94
2024-02-26T07:53:27.946Z,64.57
2024-02-26T07:55:54.602Z,62.48
2024-02-26T07:58:21.290Z,70.27
2024-02-26T08:00:47.989Z,56.75
2024-02-26T08:03:17.196Z,60.30
2024-02-26T08:05:45.501Z,54.82
2024-02-26T08:08:12.251Z,65.41
2024-02-26T08:10:39.005Z,66.13
2024-02-26T08:13:08.598Z,54.55
2024-02-26T08:15:36.550Z,55.05
2024-02-26T08:18:04.694Z,61.79
2024-02-26T08:20:32.220Z,48.15
2024-02-26T08:23:00.198Z,49.91
2024-02-26T08:25:27.632Z,49.43
2024-02-26T08:27:54.284Z,45.28
2024-02-26T08:30:21.057Z,47.19
2024-02-26T08:32:51.726Z,60.90
2024-02-26T08:35:20.036Z,50.99
2024-02-26T08:37:47.490Z,45.92
2024-02-26T08:40:16.130Z,61.30
2024-02-26T08:42:43.272Z,51.51
2024-02-26T08:45:10.873Z,48.42
2024-02-26T08:47:37.819Z,54.66
2024-02-26T08:50:05.197Z,47.18
2024-02-26T08:52:31.839Z,50.27
2024-02-26T08:54:59.008Z,48.47
2024-02-26T08:57:30.169Z,45.10
2024-02-26T08:59:56.906Z,51.42
2024-02-26T09:02:23.599Z,49.39
2024-02-26T09:04:52.131Z,49.33
2024-02-26T09:07:18.998Z,44.61
2024-02-26T09:09:45.821Z,56.75
2024-02-26T09:12:12.730Z,57.99
2024-02-26T09:14:40.799Z,48.62
2024-02-26T09:17:08.670Z,60.61
2024-02-26T09:19:35.460Z,48.99
2024-02-26T09:22:02.167Z,51.59
2024-02-26T09:24:28.954Z,50.80
2024-02-26T09:26:56.381Z,46.91
2024-02-26T09:29:23.074Z,43.54
2024-02-26T09:31:51.050Z,47.24
2024-02-26T09:34:17.765Z,45.92
2024-02-26T09:36:44.881Z,49.83
2024-02-26T09:39:13.200Z,49.14
2024-02-26T09:41:40.408Z,53.81
2024-02-26T09:44:08.265Z,46.90
2024-02-26T09:46:35.051Z,50.46
2024-02-26T09:49:03.800Z,53.72
2024-02-26T09:51:30.922Z,41.89
2024-02-26T09:54:02.735Z,40.27
2024-02-26T09:56:31.275Z,44.37
2024-02-26T09:58:59.378Z,44.72
2024-02-26T10:01:26.714Z,45.02
2024-02-26T10:03:57.937Z,39.20
2024-02-26T10:06:28.290Z,46.05
2024-02-26T10:08:56.811Z,39.89
2024-02-26T10:11:24.698Z,52.85
2024-02-26T10:13:51.365Z,47.59
2024-02-26T10:16:18.139Z,52.87
2024-02-26T10:21:19.433Z,44.17
2024-02-26T10:23:48.720Z,48.83
2024-02-26T10:26:16.521Z,48.55
2024-02-26T10:28:44.599Z,44.51
2024-02-26T10:31:11.789Z,53.26
2024-02-26T10:33:43.151Z,47.85
2024-02-26T10:36:10.807Z,58.13
2024-02-26T10:38:38.596Z,56.58
2024-02-26T10:41:07.745Z,48.81
2024-02-26T10:43:34.362Z,54.80
2024-02-26T10:46:01.027Z,55.56
2024-02-26T10:48:27.867Z,47.96
2024-02-26T10:50:54.721Z,55.95
2024-02-26T10:53:22.736Z,43.91
2024-02-26T10:55:53.322Z,51.20
2024-02-26T10:58:22.839Z,42.66
2024-02-26T11:00:51.410Z,49.39
2024-02-26T11:03:21.136Z,47.63
2024-02-26T11:05:49.163Z,38.47
2024-02-26T11:08:16.835Z,42.23
2024-02-26T11:10:44.326Z,34.83
2024-02-26T11:13:15.123Z,38.67
2024-02-26T11:15:44.789Z,38.84
2024-02-26T11:18:11.723Z,42.28
2024-02-26T11:20:41.552Z,37.28
2024-02-26T11:23:08.250Z,37.32
2024-02-26T11:25:37.466Z,35.79
2024-02-26T11:28:07.302Z,33.16
2024-02-26T11:30:37.048Z,38.07
2024-02-26T11:33:07.545Z,38.36
2024-02-26T11:35:35.171Z,46.15
2024-02-26T11:38:02.509Z,48.18
2024-02-26T11:40:29.454Z,45.85
2024-02-26T11:42:56.131Z,36.88
2024-02-26T11:45:52.987Z,44.65
2024-02-26T11:48:25.627Z,47.60
2024-02-26T11:50:54.145Z,42.68
2024-02-26T11:53:21.971Z,39.35
2024-02-26T11:55:49.376Z,39.65
2024-02-26T11:58:16.193Z,44.12
2024-02-26T12:00:43.594Z,43.60
2024-02-26T12:03:12.139Z,38.60
2024-02-26T12:05:40.322Z,38.49
2024-02-26T12:08:09.524Z,39.91
2024-02-26T12:10:37.298Z,39.51
2024-02-26T12:13:07.012Z,41.88
2024-02-26T12:15:36.619Z,40.14
2024-02-26T12:18:03.839Z,40.76
2024-02-26T12:20:31.024Z,39.10
2024-02-26T12:22:59.192Z,50.33
2024-02-26T12:25:29.877Z,40.29
2024-02-26T12:27:56.959Z,42.91
2024-02-26T12:30:24.518Z,44.85
2024-02-26T12:32:52.544Z,56.99
2024-02-26T12:35:19.822Z,62.96
2024-02-26T12:37:47.897Z,60.65
2024-02-26T12:40:15.878Z,47.24
2024-02-26T12:42:42.692Z,47.11
2024-02-26T12:45:12.589Z,45.42
2024-02-26T12:47:39.461Z,55.62
2024-02-26T12:50:09.610Z,53.37
2024-02-26T12:52:40.119Z,49.76
2024-02-26T12:55:10.745Z,46.55
2024-02-26T12:57:39.887Z,45.35
2024-02-26T13:00:10.541Z,45.75
2024-02-26T13:02:40.739Z,46.49
2024-02-26T13:05:09.033Z,43.19
2024-02-26T13:07:36.188Z,41.76
2024-02-26T13:10:03.099Z,41.74
2024-02-26T13:12:30.246Z,48.02
2024-02-26T13:15:01.763Z,52.62
2024-02-26T13:17:32.244Z,48.62
2024-02-26T13:19:59.017Z,51.47
2024-02-26T13:22:25.782Z,46.27
2024-02-26T13:24:56.180Z,45.71
2024-02-26T13:27:23.540Z,46.18
2024-02-26T13:29:50.237Z,46.59
2024-02-26T13:32:18.238Z,49.92
2024-02-26T13:34:45.063Z,55.55
2024-02-26T13:37:11.760Z,52.92
2024-02-26T13:39:41.983Z,53.60
2024-02-26T13:42:09.367Z,61.39
2024-02-26T13:44:40.521Z,61.23
2024-02-26T13:47:07.347Z,59.59
2024-02-26T13:49:35.368Z,64.27
2024-02-26T13:52:02.154Z,64.88
2024-02-26T13:54:28.880Z,61.33
2024-02-26T13:56:55.625Z,63.02
2024-02-26T13:59:22.287Z,58.17
2024-02-26T14:01:48.888Z,52.33
2024-02-26T14:04:15.727Z,47.34
2024-02-26T14:06:44.083Z,50.43
2024-02-26T14:09:10.882Z,46.48
2024-02-26T14:11:37.595Z,49.76
2024-02-26T14:14:04.262Z,47.75
2024-02-26T14:16:32.548Z,47.16
2024-02-26T14:18:59.761Z,53.04
2024-02-26T14:21:28.316Z,52.99
2024-02-26T14:23:56.886Z,59.00
2024-02-26T14:26:23.777Z,64.04
2024-02-26T14:28:50.581Z,55.66
2024-02-26T14:31:18.820Z,50.11
2024-02-26T14:33:46.177Z,52.74
2024-02-26T14:36:13.313Z,52.55
2024-02-26T14:38:40.598Z,57.91
2024-02-26T14:41:08.546Z,62.40
2024-02-26T14:43:36.479Z,62.96
2024-02-26T14:46:03.414Z,65.09
2024-02-26T14:48:31.239Z,66.88
2024-02-26T14:50:58.304Z,68.74
2024-02-26T14:53:25.231Z,67.65
2024-02-26T14:55:51.887Z,68.64
2024-02-26T14:58:20.570Z,66.87
2024-02-26T15:00:47.382Z,59.32
2024-02-26T15:03:14.249Z,63.92
2024-02-26T15:05:40.966Z,60.07
2024-02-26T15:08:10.365Z,54.60
2024-02-26T15:10:37.124Z,59.91
2024-02-26T15:13:04.666Z,57.67
2024-02-26T15:15:32.801Z,53.94
2024-02-26T15:17:59.500Z,52.69
2024-02-26T15:20:26.213Z,49.40
2024-02-26T15:22:52.795Z,49.22
2024-02-26T15:25:20.529Z,51.81
2024-02-26T15:27:47.220Z,52.31
2024-02-26T15:30:14.724Z,51.59
2024-02-26T15:32:44.239Z,54.08
2024-02-26T15:35:11.044Z,52.60
2024-02-26T15:37:37.734Z,54.54
2024-02-26T15:40:07.880Z,61.56
2024-02-26T15:42:34.617Z,65.56
2024-02-26T15:45:01.582Z,67.09
2024-02-26T15:47:28.285Z,67.36
2024-02-26T15:49:56.497Z,59.62
2024-02-26T15:52:23.192Z,60.31
2024-02-26T15:54:49.945Z,55.93
2024-02-26T15:57:18.425Z,61.15
2024-02-26T15:59:45.115Z,63.56
2024-02-26T16:02:11.720Z,65.91
2024-02-26T16:04:38.611Z,65.91
2024-02-26T16:07:11.619Z,66.32
2024-02-26T16:09:38.329Z,66.74
2024-02-26T16:12:10.295Z,67.60
2024-02-26T16:14:45.171Z,67.93
2024-02-26T16:17:17.357Z,60.98
2024-02-26T16:19:44.369Z,67.74
2024-02-26T16:22:12.673Z,67.08
2024-02-26T16:24:39.421Z,63.04
2024-02-26T16:27:06.278Z,60.59
2024-02-26T16:29:32.980Z,63.40
2024-02-26T16:31:59.592Z,65.12
2024-02-26T16:34:26.318Z,68.00
2024-02-26T16:36:53.093Z,67.05
2024-02-26T16:39:21.142Z,60.36
2024-02-26T16:41:47.811Z,69.13
2024-02-26T16:44:14.556Z,69.71
2024-02-26T16:46:41.236Z,69.01
2024-02-26T16:49:08.997Z,63.42
2024-02-26T16:51:38.075Z,69.27
2024-02-26T16:54:05.050Z,70.21
2024-02-26T16:56:33.086Z,70.28
2024-02-26T16:58:59.706Z,68.98
2024-02-26T17:01:26.408Z,63.53
2024-02-26T17:03:53.039Z,69.69
2024-02-26T17:06:24.352Z,70.40
2024-02-26T17:08:53.542Z,65.01
2024-02-26T17:11:20.907Z,68.38
2024-02-26T17:13:49.172Z,70.58
2024-02-26T17:16:16.399Z,71.50
2024-02-26T17:18:44.297Z,71.18
2024-02-26T17:21:11.057Z,71.35
2024-02-26T17:23:38.183Z,70.52
2024-02-26T17:26:07.709Z,69.58
2024-02-26T17:28:36.846Z,70.06
2024-02-26T17:31:04.962Z,66.24
2024-02-26T17:33:31.806Z,68.65
2024-02-26T17:35:58.512Z,70.48
2024-02-26T17:38:25.216Z,69.67
2024-02-26T17:40:51.837Z,69.71
2024-02-26T17:43:19.285Z,69.10
2024-02-26T17:45:46.088Z,69.08
2024-02-26T17:48:15.216Z,68.92
2024-02-26T17:50:42.085Z,69.99
2024-02-26T17:53:08.907Z,71.13
2024-02-26T17:55:35.488Z,70.87
2024-02-26T17:58:02.139Z,71.15
2024-02-26T18:00:29.885Z,70.76
2024-02-26T18:02:56.646Z,63.48
2024-02-26T18:05:24.954Z,68.02
2024-02-26T18:07:52.110Z,69.76
2024-02-26T18:10:23.670Z,71.69
2024-02-26T18:12:50.304Z,72.04
2024-02-26T18:15:17.022Z,68.72
2024-02-26T18:17:43.687Z,70.35
2024-02-26T18:20:12.102Z,66.61
2024-02-26T18:22:40.067Z,71.17
2024-02-26T18:25:07.285Z,71.03
2024-02-26T18:27:36.438Z,71.11
2024-02-26T18:30:03.981Z,70.00
2024-02-26T18:32:30.833Z,71.13
2024-02-26T18:34:57.623Z,70.79
2024-02-26T18:37:24.310Z,70.58
2024-02-26T18:39:52.472Z,69.97
2024-02-26T18:42:20.703Z,69.48
2024-02-26T18:44:47.403Z,70.15
2024-02-26T18:47:14.107Z,71.08
2024-02-26T18:49:41.545Z,70.06
2024-02-26T18:52:08.710Z,70.21
2024-02-26T18:54:37.563Z,70.17
2024-02-26T18:57:06.268Z,71.36
2024-02-26T18:59:32.909Z,71.51
2024-02-26T19:01:59.593Z,70.82
2024-02-26T19:04:26.284Z,70.86
2024-02-26T19:06:55.020Z,70.04
2024-02-26T19:09:21.779Z,70.85
2024-02-26T19:11:49.968Z,70.29
2024-02-26T19:14:19.358Z,70.28
2024-02-26T19:16:45.950Z,69.81
2024-02-26T19:19:12.731Z,70.91
2024-02-26T19:21:39.667Z,70.01
2024-02-26T19:24:07.705Z,70.22
2024-02-26T19:26:35.078Z,63.53
2024-02-26T19:29:05.049Z,63.30
2024-02-26T19:31:35.169Z,73.16
2024-02-26T19:34:02.456Z,71.14
2024-02-26T19:36:29.274Z,68.44
2024-02-26T19:38:55.961Z,70.30
2024-02-26T19:41:22.750Z,70.64
2024-02-26T19:43:49.356Z,70.66
2024-02-26T19:46:16.108Z,71.26
2024-02-26T19:48:44.226Z,70.91
2024-02-26T19:51:16.809Z,67.05
2024-02-26T19:53:43.533Z,70.25
2024-02-26T19:56:10.293Z,69.53
2024-02-26T19:58:36.888Z,66.46
2024-02-26T20:01:03.710Z,70.99
2024-02-26T20:03:30.432Z,72.86
2024-02-26T20:05:58.483Z,71.35
2024-02-26T20:08:25.168Z,70.20
2024-02-26T20:10:52.807Z,63.81
2024-02-26T20:13:21.124Z,71.18
2024-02-26T20:15:48.432Z,70.64
2024-02-26T20:18:15.118Z,70.00
2024-02-26T20:20:43.463Z,70.08
2024-02-26T20:23:11.470Z,70.17
2024-02-26T20:25:39.384Z,70.42
2024-02-26T20:28:06.635Z,70.23
2024-02-26T20:30:34.266Z,70.03
2024-02-26T20:33:01.190Z,69.63
2024-02-26T20:35:27.983Z,70.00
2024-02-26T20:37:54.609Z,69.67
2024-02-26T20:40:22.562Z,70.89
2024-02-26T20:42:49.442Z,70.53
2024-02-26T20:45:16.513Z,70.36
2024-02-26T20:47:45.075Z,68.77
2024-02-26T20:50:11.864Z,59.76
2024-02-26T20:52:38.475Z,71.61
2024-02-26T20:55:06.976Z,70.60
2024-02-26T20:57:35.066Z,70.93
2024-02-26T21:00:01.911Z,63.58
2024-02-26T21:02:34.014Z,71.21
2024-02-26T21:05:03.451Z,72.73
2024-02-26T21:07:31.050Z,71.09
2024-02-26T21:09:58.026Z,70.34
2024-02-26T21:12:25.639Z,70.87
2024-02-26T21:14:54.883Z,70.91
2024-02-26T21:17:21.619Z,70.54
2024-02-26T21:19:48.346Z,69.76
2024-02-26T21:22:15.090Z,70.38
2024-02-26T21:24:41.961Z,70.61
2024-02-26T21:27:08.735Z,70.83
2024-02-26T21:29:36.964Z,70.21
2024-02-26T21:32:05.966Z,70.65
2024-02-26T21:34:32.672Z,60.10
2024-02-26T21:36:59.440Z,70.82
2024-02-26T21:39:26.119Z,71.86
2024-02-26T21:41:52.884Z,70.20
2024-02-26T21:44:19.544Z,70.62
2024-02-26T21:46:47.949Z,71.18
2024-02-26T21:49:16.571Z,71.15
2024-02-26T21:51:45.003Z,70.85
2024-02-26T21:54:12.591Z,70.73
2024-02-26T21:56:39.610Z,70.15
2024-02-26T21:59:07.704Z,70.12
2024-02-26T22:01:34.648Z,70.04
2024-02-26T22:04:01.417Z,69.22
2024-02-26T22:06:29.672Z,69.87
2024-02-26T22:08:56.639Z,69.76
2024-02-26T22:11:24.326Z,70.33
2024-02-26T22:13:51.571Z,69.80
2024-02-26T22:16:18.220Z,69.24
2024-02-26T22:18:46.026Z,65.37
2024-02-26T22:21:13.170Z,74.68
2024-02-26T22:23:41.364Z,75.40
2024-02-26T22:26:08.039Z,71.66
2024-02-26T22:28:34.689Z,70.45
2024-02-26T22:31:01.623Z,65.87
2024-02-26T22:33:28.636Z,70.98
2024-02-26T22:35:55.458Z,70.29
2024-02-26T22:38:22.155Z,70.09
2024-02-26T22:40:50.111Z,69.81
2024-02-26T22:43:16.734Z,69.77
2024-02-26T22:45:43.374Z,70.34
2024-02-26T22:48:10.622Z,70.23
2024-02-26T22:50:37.615Z,69.94
2024-02-26T22:53:04.493Z,69.39
2024-02-26T22:55:31.140Z,69.86
2024-02-26T22:57:59.099Z,69.69
2024-02-26T23:00:27.930Z,69.61
2024-02-26T23:02:55.033Z,69.29
2024-02-26T23:05:23.373Z,62.79
2024-02-26T23:07:50.235Z,70.29
2024-02-26T23:10:17.116Z,69.98
2024-02-26T23:12:44.348Z,69.95
2024-02-26T23:15:12.984Z,70.60
2024-02-26T23:17:40.000Z,70.49
2024-02-26T23:20:11.237Z,70.02
2024-02-26T23:22:38.864Z,62.94
2024-02-26T23:25:08.790Z,70.71
2024-02-26T23:27:35.799Z,70.78
2024-02-26T23:30:02.985Z,69.90
2024-02-26T23:32:31.122Z,69.65
2024-02-26T23:34:58.004Z,69.75
2024-02-26T23:37:24.665Z,68.84
2024-02-26T23:39:51.300Z,65.29
2024-02-26T23:42:18.038Z,72.46
2024-02-26T23:44:44.627Z,70.42
2024-02-26T23:47:11.233Z,69.93
2024-02-26T23:49:39.163Z,70.15
2024-02-26T23:52:06.010Z,70.35
2024-02-26T23:54:32.682Z,70.67
2024-02-26T23:56:59.397Z,71.02
2024-02-26T23:59:25.999Z,69.91
